Flight Track Log - Related Links

Times and Time Zones

All times are in EDT time to prevent confusion due to time zone crossing. See the ASQ5884 flight status page for this flight to view local times or setup timezone preferences in your user account.

Time Position Orientation Groundspeed Altitude Reporting Facility
EDT Latitude Longitude Course Direction KTS MPH feet Rate Location/Type
Tue 05:59:00 AM 41.3860 -75.8868 315° West  Level FlightAware Approximate
Tue 05:59:05 AM 41.2897 -75.8544 307° West 242 278 6,200  Level New York Center
Tue 06:00:00 AM 41.4462 -75.9756 304° West  Level FlightAware Approximate
Tue 06:00:05 AM 41.3519 -75.9089 327° Northwest 267 307 8,000  Level New York Center
Tue 06:01:00 AM 41.5043 -76.0668 315° West  Level FlightAware Approximate
Tue 06:01:07 AM 41.4200 -75.9692 326° Northwest 277 319 8,000  Level New York Center
Tue 06:02:00 AM 41.5649 -76.1557 312° West  Level FlightAware Approximate
Tue 06:02:04 AM 41.4944 -76.0333 327° Northwest 277 319 9,100  Level New York Center
Tue 06:03:00 AM 41.6213 -76.2496 307° West  Level FlightAware Approximate
Tue 06:03:05 AM 41.5644 -76.0942 327° Northwest 288 331 10,000  Level New York Center
Tue 06:04:00 AM 41.6755 -76.3459 307° West  Level FlightAware Approximate
Tue 06:04:05 AM 41.6428 -76.1586 328° Northwest 336 387 10,600  Level New York Center
Tue 06:05:06 AM 41.6942 -76.2656 303° West 349 402 12,800 1,934 Climbing New York Center
Tue 06:06:06 AM 41.7356 -76.4025 292° West 354 407 14,500 1,426 Climbing New York Center
Tue 06:07:08 AM 41.7675 -76.5192 290° West 365 420 15,700 1,488 Climbing New York Center
Tue 06:08:07 AM 41.8031 -76.6475 290° West 370 426 17,500 1,223 Climbing New York Center
Tue 06:09:45 AM 41.8669 -76.8772 291° West 388 447 18,900 873 Climbing Cleveland Center
Tue 06:10:45 AM 41.9069 -77.0200 291° West 400 460 19,800 900 Climbing Cleveland Center
Tue 06:11:45 AM 41.9467 -77.1658 290° West 412 474 20,700 900 Climbing Cleveland Center
Tue 06:12:45 AM 41.9886 -77.3144 291° West 422 486 21,600 900 Climbing Cleveland Center
Tue 06:13:45 AM 42.0283 -77.4689 289° West 422 486 22,500 900 Climbing Cleveland Center
Tue 06:14:45 AM 42.0678 -77.6181 290° West 422 486 23,400 900 Climbing Cleveland Center
Tue 06:15:45 AM 42.1092 -77.7731 290° West 427 491 24,300 800 Climbing Cleveland Center
Tue 06:16:45 AM 42.1503 -77.9225 290° West 427 491 25,000 600 Climbing Cleveland Center
Tue 06:17:45 AM 42.1892 -78.0778 289° West 427 491 25,500 950 Climbing Cleveland Center
Tue 06:18:45 AM 42.2278 -78.2306 289° West 432 497 26,900 1,200 Climbing Cleveland Center
Tue 06:19:45 AM 42.2661 -78.3778 289° West 432 497 27,900 1,250 Climbing Cleveland Center
Tue 06:20:45 AM 42.3042 -78.5225 290° West 421 484 29,400 1,450 Climbing Cleveland Center
Tue 06:21:45 AM 42.3403 -78.6703 288° West 415 478 30,800 1,400 Climbing Cleveland Center
Tue 06:22:45 AM 42.3778 -78.8125 290° West 410 472 32,200 1,450 Climbing Cleveland Center
Tue 06:23:45 AM 42.4156 -78.9717 288° West 410 472 33,700 900 Climbing Cleveland Center
Tue 06:24:45 AM 42.4531 -79.1142 290° West 404 465 34,000 150 Climbing Cleveland Center
Tue 06:25:45 AM 42.4925 -79.2711 289° West 417 480 34,000 350 Level Cleveland Center
Tue 06:26:45 AM 42.5025 -79.4425 275° West 435 501 34,700 900 Climbing Cleveland Center
Tue 06:27:45 AM 42.5083 -79.6086 273° West 449 517 35,800 650 Climbing Cleveland Center
Tue 06:28:45 AM 42.5178 -79.7747 274° West 449 517 36,000 100 Climbing Cleveland Center
Tue 06:29:45 AM 42.5272 -79.9464 274° West 449 517 36,000  Level Cleveland Center
Tue 06:30:45 AM 42.5281 -80.0931 270° West 449 517 36,000  Level Cleveland Center
Tue 06:31:45 AM 42.5369 -80.2564 274° West 437 503 36,000  Level Cleveland Center
Tue 06:32:45 AM 42.5414 -80.4197 272° West 437 503 36,000  Level Cleveland Center
Tue 06:33:45 AM 42.5497 -80.6058 274° West 442 509 36,000  Level Cleveland Center
Tue 06:34:45 AM 42.5558 -80.7747 273° West 442 509 36,000  Level Cleveland Center
Tue 06:35:45 AM 42.5617 -80.9469 273° West 454 522 36,000  Level Cleveland Center
Tue 06:36:45 AM 42.5694 -81.1161 274° West 459 528 36,000  Level Cleveland Center
Tue 06:37:45 AM 42.5769 -81.2853 274° West 459 528 36,000  Level Cleveland Center
Tue 06:38:45 AM 42.5842 -81.4517 273° West 454 522 36,000  Level Cleveland Center
Tue 06:39:45 AM 42.6119 -81.6158 283° West 454 522 36,000  Level Cleveland Center
Tue 06:40:45 AM 42.6417 -81.7772 284° West 454 522 36,000  Level Cleveland Center
Tue 06:41:45 AM 42.6689 -81.9442 283° West 454 522 36,000  Level Cleveland Center
Tue 06:42:45 AM 42.6981 -82.1086 284° West 454 522 36,000  Level Cleveland Center
Tue 06:43:45 AM 42.7269 -82.2789 283° West 454 522 36,000  Level Cleveland Center
Tue 06:44:45 AM 42.7558 -82.4408 284° West 454 522 36,000  Level Cleveland Center
Tue 06:45:45 AM 42.7906 -82.6061 286° West 448 516 36,000  Level Cleveland Center
Tue 06:46:45 AM 42.8483 -82.7553 298° West 448 516 36,000  Level Cleveland Center
Tue 06:47:45 AM 42.9078 -82.9019 299° West 443 510 36,000  Level Cleveland Center
Tue 06:48:45 AM 42.9631 -83.0514 297° West 443 510 36,000  Level Cleveland Center
Tue 06:49:45 AM 42.9803 -83.2197 278° West 443 510 36,000 -400 Level Cleveland Center
Tue 06:50:45 AM 42.9764 -83.3897 268° West 443 510 35,200 -850 Descending Cleveland Center
Tue 06:51:45 AM 42.9719 -83.5569 268° West 448 516 34,300 -1,000 Descending Cleveland Center
Tue 06:52:45 AM 42.9675 -83.7300 268° West 448 516 33,200 -1,100 Descending Cleveland Center
Tue 06:53:45 AM 42.9503 -83.8992 262° West 454 522 32,100 -600 Descending Cleveland Center
Tue 06:54:45 AM 42.9347 -84.0686 263° West 459 528 32,000 -50 Descending Cleveland Center
Tue 06:55:45 AM 42.9169 -84.2464 262° West 464 534 32,000  Level Cleveland Center
Tue 06:57:12 AM 42.8936 -84.4894 263° West 463 533 32,000  Level Chicago Center
Tue 06:58:13 AM 42.8769 -84.6633 263° West 463 533 32,000  Level Chicago Center
Tue 06:59:14 AM 42.8578 -84.8347 261° West 461 531 32,000  Level Chicago Center
Tue 07:00:15 AM 42.8400 -85.0078 262° West 461 531 32,000  Level Chicago Center
Tue 07:01:16 AM 42.8217 -85.1811 262° West 462 532 32,000 -50 Level Chicago Center
Tue 07:02:16 AM 42.8025 -85.3531 261° West 461 531 31,900 -942 Descending Chicago Center
Tue 07:03:17 AM 42.7819 -85.5242 261° West 458 527 30,100 -1,967 Descending Chicago Center
Tue 07:04:18 AM 42.7514 -85.6964 256° West 463 533 27,900 -2,459 Descending Chicago Center
Tue 07:05:19 AM 42.7194 -85.8686 256° West 467 537 25,100 -2,705 Descending Chicago Center
Tue 07:06:20 AM 42.6914 -86.0308 257° West 444 511 22,400 -2,281 Descending Chicago Center
Tue 07:07:20 AM 42.6628 -86.1839 256° West 420 483 20,500 -1,190 Descending Chicago Center
Tue 07:08:21 AM 42.6347 -86.3308 255° West 404 465 20,000 -246 Descending Chicago Center
Tue 07:09:22 AM 42.6075 -86.4764 256° West 397 457 20,000  Level Chicago Center
Tue 07:10:23 AM 42.5803 -86.6231 256° West 401 461 20,000 -1,131 Level Chicago Center
Tue 07:11:24 AM 42.5456 -86.7886 254° West 399 459 17,700 -2,262 Descending Chicago Center
Tue 07:12:25 AM 42.5131 -86.9061 249° West 390 449 15,400 -2,410 Descending Chicago Center
Tue 07:13:26 AM 42.4758 -87.0383 249° West 378 435 12,800 -2,361 Descending Chicago Center
Tue 07:14:27 AM 42.4331 -87.1942 250° West 369 425 10,600 -1,377 Descending Chicago Center
Tue 07:15:28 AM 42.3975 -87.3214 249° West 364 419 10,000 -293 Descending Chicago Center
Tue 07:16:30 AM 42.3675 -87.4339 250° West 353 406 10,000  Level Chicago Center
Tue 07:17:31 AM 42.3225 -87.5494 242° Southwest 355 409 10,000  Level Chicago Center
Tue 07:18:32 AM 42.2456 -87.6319 218° Southwest 354 407 10,000 -49 Level Chicago Center
Tue 07:19:33 AM 42.1633 -87.7222 219° Southwest 314 361 9,900 -778 Descending Chicago Center
Tue 07:20:20 AM 42.1167 -87.7667 215° Southwest 277 319 8,600 -1,540 Descending Chicago TRACON
Tue 07:21:26 AM 42.0833 -87.8667 246° West 263 303 7,000 -842 Descending Chicago TRACON
Tue 07:22:14 AM 42.0500 -87.9500 242° Southwest 286 329 7,000 -263 Level Chicago TRACON
Tue 07:23:20 AM 42.0500 -88.0500 270° West 234 269 6,500 -699 Descending Chicago TRACON
Tue 07:24:40 AM 42.0422 -88.1439 264° West 224 258 5,300 -894 Descending Chicago Center
Tue 07:25:41 AM 42.0336 -88.2108 260° West 199 229 4,400 -634 Descending Chicago Center
Tue 07:26:43 AM 41.9739 -88.2047 176° South 187 215 4,000 -341 Descending Chicago Center
Tue 07:27:44 AM 41.9678 -88.1367 97° East 186 214 3,700 -551 Descending Chicago Center
Tue 07:28:21 AM 41.9667 -88.0833 92° East 179 206 3,100 -989 Descending Chicago TRACON
Tue 07:29:15 AM 41.9667 -88.0333 90° East 172 198 2,200 -1,000 Descending Chicago TRACON

Login

Don't have an account? Register now (free) for customized features, flight alerts, and more!